Time;durP1;ratioP1;P1;durP2;ratioP2;P2;SDS_P1;SDS_P2;PMS_P1;PMS_P2;Temp;Humidity;BMP_temperature;BMP_pressure;BME280_temperature;BME280_humidity;BME280_pressure;Samples;Min_cycle;Max_cycle;Signal;HPM_P1;HPM_P2
2023/07/01 00:01:56;;;;;;;6.15;2.10;;;;;;;18.17;53.63;100701.84;4970913;28;20372;-78
2023/07/01 00:04:21;;;;;;;6.63;2.45;;;;;;;18.14;53.74;100703.03;4968740;28;20110;-78
2023/07/01 00:06:47;;;;;;;7.47;2.00;;;;;;;18.10;53.72;100691.03;4978887;28;20101;-78
2023/07/01 00:09:13;;;;;;;7.07;2.10;;;;;;;18.11;54.06;100686.53;4973209;28;20521;-78
2023/07/01 00:11:39;;;;;;;3.28;1.88;;;;;;;18.05;54.32;100681.88;4985148;28;20034;-78
2023/07/01 00:14:04;;;;;;;4.65;2.22;;;;;;;18.03;54.39;100679.41;4992545;28;20082;-77
2023/07/01 00:16:30;;;;;;;6.82;2.30;;;;;;;18.08;54.50;100684.22;4991878;28;20045;-77
2023/07/01 00:18:55;;;;;;;6.90;2.20;;;;;;;18.05;54.57;100674.72;4989300;28;20077;-78
2023/07/01 00:21:21;;;;;;;5.32;2.20;;;;;;;18.05;54.80;100672.06;4973654;28;20023;-78
2023/07/01 00:23:46;;;;;;;4.43;1.85;;;;;;;18.06;55.02;100663.09;4972744;28;20049;-79
2023/07/01 00:26:12;;;;;;;5.35;2.17;;;;;;;18.04;55.13;100659.75;4971041;28;20026;-79
2023/07/01 00:28:38;;;;;;;10.30;2.47;;;;;;;18.03;55.32;100662.59;4972131;28;20603;-79
2023/07/01 00:31:04;;;;;;;6.75;2.28;;;;;;;18.06;55.44;100657.75;4971628;28;20085;-79
2023/07/01 00:33:29;;;;;;;4.22;2.00;;;;;;;18.05;55.71;100644.63;4977688;28;20022;-79
2023/07/01 00:35:55;;;;;;;4.15;1.92;;;;;;;18.00;55.76;100646.91;4990167;28;20049;-79
2023/07/01 00:38:20;;;;;;;4.35;2.30;;;;;;;18.05;56.15;100645.44;4971255;28;20027;-80
2023/07/01 00:40:46;;;;;;;4.00;2.17;;;;;;;18.03;56.20;100642.13;4972008;28;20049;-80
2023/07/01 00:43:11;;;;;;;5.35;2.17;;;;;;;18.03;56.48;100647.44;4976762;28;20441;-79
2023/07/01 00:45:37;;;;;;;4.22;1.95;;;;;;;18.03;57.00;100638.63;4990257;28;20109;-79
2023/07/01 00:48:02;;;;;;;6.43;2.25;;;;;;;18.02;56.86;100632.47;4989629;28;20022;-78
2023/07/01 00:50:28;;;;;;;7.13;2.33;;;;;;;18.05;56.97;100636.63;4991251;28;20541;-79
2023/07/01 00:52:53;;;;;;;6.10;2.45;;;;;;;18.01;57.21;100636.13;4989355;28;20049;-79
2023/07/01 00:55:19;;;;;;;4.10;2.25;;;;;;;18.00;57.78;100630.94;4983909;28;20038;-79
2023/07/01 00:57:44;;;;;;;7.50;2.65;;;;;;;17.97;58.95;100626.78;4971557;28;20033;-79
2023/07/01 01:00:12;;;;;;;6.95;2.40;;;;;;;17.91;59.20;100627.47;4970511;28;20395;-79
2023/07/01 01:02:54;;;;;;;4.53;2.50;;;;;;;17.89;58.77;100624.13;4973265;28;20105;-79
2023/07/01 01:05:27;;;;;;;7.80;2.05;;;;;;;17.83;59.09;100620.31;4970225;28;20022;-79
2023/07/01 01:08:18;;;;;;;5.28;2.40;;;;;;;17.87;58.88;100617.31;4986833;28;20191;-79
2023/07/01 01:10:47;;;;;;;4.25;1.90;;;;;;;17.85;59.25;100609.50;4978107;28;20027;-78
2023/07/01 01:13:14;;;;;;;6.97;2.70;;;;;;;17.85;59.53;100606.84;4970163;28;20038;-78
2023/07/01 01:15:41;;;;;;;6.80;2.20;;;;;;;17.87;59.39;100606.66;4955720;28;20045;-79
2023/07/01 01:18:10;;;;;;;7.50;2.60;;;;;;;17.87;59.59;100604.84;4966714;28;20074;-78
2023/07/01 01:20:38;;;;;;;12.05;2.60;;;;;;;17.87;59.85;100604.84;4983132;28;20097;-80
2023/07/01 01:23:13;;;;;;;6.32;2.35;;;;;;;17.89;59.75;100597.50;5004650;28;20029;-79
2023/07/01 01:25:51;;;;;;;6.03;2.30;;;;;;;17.92;59.84;100599.00;4990091;28;20471;-79
2023/07/01 01:28:17;;;;;;;10.52;2.35;;;;;;;17.92;60.33;100580.38;4989224;28;20097;-78
2023/07/01 01:30:42;;;;;;;6.03;2.45;;;;;;;17.90;60.74;100596.50;4998405;28;20648;-78
2023/07/01 01:33:08;;;;;;;8.38;2.70;;;;;;;17.90;60.92;100587.69;4965529;28;20030;-79
2023/07/01 01:35:33;;;;;;;7.38;2.80;;;;;;;17.87;63.16;100583.53;4950240;28;20050;-78
2023/07/01 01:38:07;;;;;;;5.90;2.40;;;;;;;17.80;64.30;100588.69;4953213;28;20027;-77
2023/07/01 01:40:37;;;;;;;6.18;2.13;;;;;;;17.78;66.33;100581.88;4976124;28;20057;-78
2023/07/01 01:43:11;;;;;;;8.90;2.72;;;;;;;17.73;66.68;100581.56;4970793;28;20109;-77
2023/07/01 01:45:38;;;;;;;4.60;2.45;;;;;;;17.67;67.12;100582.22;4986456;28;20030;-77
2023/07/01 01:48:05;;;;;;;7.30;2.30;;;;;;;17.66;67.68;100576.03;4993369;28;20487;-78
2023/07/01 01:50:32;;;;;;;5.50;2.55;;;;;;;17.66;67.81;100569.88;4971740;28;20050;-78
2023/07/01 01:53:01;;;;;;;6.85;2.50;;;;;;;17.62;67.66;100573.88;4974642;28;20501;-78
2023/07/01 01:55:27;;;;;;;8.23;2.80;;;;;;;17.58;68.04;100568.03;4977986;28;20030;-78
2023/07/01 01:57:53;;;;;;;9.93;2.80;;;;;;;17.57;67.98;100570.84;4989076;28;20046;-78
2023/07/01 02:00:19;;;;;;;7.78;2.90;;;;;;;17.54;67.99;100566.69;4981774;28;20034;-78
2023/07/01 02:02:44;;;;;;;6.32;2.35;;;;;;;17.59;68.16;100566.19;4974469;28;20035;-79
2023/07/01 02:05:09;;;;;;;9.77;2.72;;;;;;;17.57;68.45;100560.22;4967691;28;20035;-78
2023/07/01 02:07:36;;;;;;;6.45;2.33;;;;;;;17.59;68.43;100560.88;4975200;28;20391;-78
2023/07/01 02:10:02;;;;;;;7.25;3.03;;;;;;;17.57;68.71;100563.69;4973471;28;20027;-77
2023/07/01 02:12:29;;;;;;;4.18;2.72;;;;;;;17.58;68.59;100562.72;4984332;28;20038;-77
2023/07/01 02:14:55;;;;;;;4.65;2.55;;;;;;;17.55;68.62;100553.22;4991801;28;20439;-78
2023/07/01 02:17:20;;;;;;;8.82;3.08;;;;;;;17.52;69.52;100558.88;4992733;28;20037;-79
2023/07/01 02:19:46;;;;;;;11.38;3.30;;;;;;;17.49;70.36;100553.91;4992153;28;20042;-78
2023/07/01 02:22:12;;;;;;;10.07;2.70;;;;;;;17.42;71.34;100547.56;4977588;28;20566;-79
2023/07/01 02:24:40;;;;;;;8.05;2.60;;;;;;;17.40;71.89;100549.56;4954609;28;20027;-78
2023/07/01 02:27:05;;;;;;;4.80;2.50;;;;;;;17.32;72.41;100544.25;4989352;28;20042;-77
2023/07/01 02:29:31;;;;;;;8.20;3.42;;;;;;;17.30;72.99;100532.13;4993352;28;20364;-78
2023/07/01 02:31:56;;;;;;;10.77;2.90;;;;;;;17.25;73.84;100537.94;4994728;28;20034;-78
2023/07/01 02:34:30;;;;;;;7.47;3.03;;;;;;;17.18;75.76;100534.22;4981136;28;20058;-78
2023/07/01 02:36:55;;;;;;;6.50;2.72;;;;;;;17.17;76.79;100524.59;4973022;28;20030;-76
2023/07/01 02:39:20;;;;;;;4.95;2.80;;;;;;;17.10;78.25;100520.94;4976351;28;20027;-76
2023/07/01 02:41:46;;;;;;;6.10;2.65;;;;;;;17.03;80.01;100514.63;4979877;28;20093;-76
2023/07/01 02:44:11;;;;;;;7.22;2.78;;;;;;;16.97;82.41;100524.06;4979655;28;20054;-76
2023/07/01 02:46:40;;;;;;;5.75;2.50;;;;;;;16.96;83.92;100524.25;4990648;28;20026;-77
2023/07/01 02:49:06;;;;;;;12.63;2.60;;;;;;;16.83;85.28;100514.91;4980893;28;20023;-76
2023/07/01 02:51:33;;;;;;;7.57;2.47;;;;;;;16.77;86.92;100522.66;4978435;28;20026;-76
2023/07/01 02:53:58;;;;;;;6.53;2.55;;;;;;;16.69;88.08;100515.50;4991207;28;20030;-76
2023/07/01 02:56:23;;;;;;;4.03;2.45;;;;;;;16.63;89.16;100518.78;4974838;28;20034;-77
2023/07/01 02:58:49;;;;;;;4.32;2.50;;;;;;;16.59;89.29;100512.97;4968556;28;20445;-76
2023/07/01 03:01:15;;;;;;;6.85;2.50;;;;;;;16.52;90.17;100516.44;4989760;28;20037;-76
2023/07/01 03:03:40;;;;;;;6.80;2.33;;;;;;;16.63;90.37;100508.16;4976878;28;20034;-77
2023/07/01 03:06:06;;;;;;;3.55;2.22;;;;;;;16.61;90.42;100510.16;4973940;28;20031;-77
2023/07/01 03:08:32;;;;;;;5.68;2.58;;;;;;;16.58;91.03;100510.47;4972870;28;20019;-77
2023/07/01 03:10:57;;;;;;;4.82;2.78;;;;;;;16.57;91.75;100514.13;4986002;28;20035;-77
2023/07/01 03:13:22;;;;;;;4.88;2.47;;;;;;;16.52;93.43;100505.81;4988767;28;20030;-77
2023/07/01 03:15:48;;;;;;;4.15;2.20;;;;;;;16.45;93.69;100500.31;4970278;28;20045;-77
2023/07/01 03:18:13;;;;;;;6.07;2.70;;;;;;;16.39;94.49;100495.59;4973637;28;20019;-76
2023/07/01 03:20:39;;;;;;;4.80;2.60;;;;;;;16.33;95.06;100490.09;4973648;28;20061;-76
2023/07/01 03:23:04;;;;;;;6.13;2.13;;;;;;;16.36;94.75;100487.97;4973222;28;20057;-77
2023/07/01 03:25:29;;;;;;;5.63;2.70;;;;;;;16.27;95.78;100487.09;4972030;28;20110;-77
2023/07/01 03:27:55;;;;;;;6.50;2.50;;;;;;;16.26;95.84;100480.13;4972423;28;20066;-77
2023/07/01 03:30:23;;;;;;;4.88;2.70;;;;;;;16.23;96.45;100480.44;4975226;28;20027;-77
2023/07/01 03:32:49;;;;;;;4.05;2.60;;;;;;;16.20;96.99;100475.47;4981278;28;20066;-77
2023/07/01 03:35:15;;;;;;;6.40;2.80;;;;;;;16.17;97.27;100470.47;4986733;28;20530;-77
2023/07/01 03:37:43;;;;;;;4.63;2.80;;;;;;;16.14;97.71;100476.09;4973060;28;20041;-76
2023/07/01 03:40:12;;;;;;;3.08;2.35;;;;;;;16.10;98.30;100474.75;4972518;28;20114;-76
2023/07/01 03:42:38;;;;;;;5.47;2.60;;;;;;;16.15;98.54;100475.09;4972148;28;20027;-76
2023/07/01 03:45:08;;;;;;;4.13;2.50;;;;;;;16.15;100.00;100477.75;4974895;28;20038;-76
2023/07/01 03:47:35;;;;;;;4.03;2.60;;;;;;;16.13;100.00;100474.44;4971749;28;20050;-77
2023/07/01 03:50:00;;;;;;;7.03;2.95;;;;;;;16.11;100.00;100464.97;4974238;28;20076;-77
2023/07/01 03:52:26;;;;;;;4.47;3.33;;;;;;;16.05;100.00;100466.44;4991756;28;20022;-78
2023/07/01 03:54:52;;;;;;;5.32;2.80;;;;;;;16.01;100.00;100459.78;4989341;28;20026;-77
2023/07/01 03:57:17;;;;;;;3.72;3.00;;;;;;;15.92;100.00;100466.00;4960625;28;20033;-77
2023/07/01 03:59:43;;;;;;;4.78;3.10;;;;;;;15.94;100.00;100458.72;4978537;28;20105;-78
2023/07/01 04:02:10;;;;;;;3.25;2.90;;;;;;;15.93;100.00;100462.38;4990308;28;20022;-78
2023/07/01 04:04:35;;;;;;;5.95;3.17;;;;;;;15.92;100.00;100460.69;4974499;28;20395;-78
2023/07/01 04:07:01;;;;;;;3.47;2.80;;;;;;;15.87;100.00;100453.22;4957659;28;20031;-78
2023/07/01 04:09:26;;;;;;;5.90;3.28;;;;;;;15.84;100.00;100450.06;4975037;28;20194;-78
2023/07/01 04:11:52;;;;;;;4.47;3.03;;;;;;;15.76;100.00;100445.53;4997906;28;20073;-77
2023/07/01 04:14:17;;;;;;;3.28;2.92;;;;;;;15.76;100.00;100442.06;4975875;28;20058;-78
2023/07/01 04:16:44;;;;;;;4.32;2.92;;;;;;;15.71;100.00;100436.38;4972651;28;20027;-78
2023/07/01 04:19:10;;;;;;;3.42;2.92;;;;;;;15.74;100.00;100431.59;4985248;28;20124;-79
2023/07/01 04:21:35;;;;;;;4.90;3.47;;;;;;;15.73;100.00;100434.41;4980904;28;20027;-80
2023/07/01 04:24:04;;;;;;;3.97;2.72;;;;;;;15.71;100.00;100433.72;4966684;28;20023;-80
2023/07/01 04:26:31;;;;;;;4.03;2.90;;;;;;;15.66;100.00;100429.72;4972363;28;20042;-80
2023/07/01 04:28:57;;;;;;;4.75;2.90;;;;;;;15.65;100.00;100437.84;4971865;28;20105;-80
2023/07/01 04:31:23;;;;;;;3.65;3.00;;;;;;;15.65;100.00;100422.75;4971448;28;20475;-79
2023/07/01 04:33:49;;;;;;;3.85;2.78;;;;;;;15.65;100.00;100422.75;4985521;28;20035;-79
2023/07/01 04:36:15;;;;;;;3.55;3.10;;;;;;;15.65;100.00;100422.75;4991062;28;20077;-80
2023/07/01 04:38:40;;;;;;;3.22;2.90;;;;;;;15.61;100.00;100421.41;4967636;28;20038;-80
2023/07/01 04:41:06;;;;;;;3.20;2.90;;;;;;;15.59;100.00;100418.06;4958158;28;20420;-80
2023/07/01 04:43:31;;;;;;;3.50;2.90;;;;;;;15.61;100.00;100415.28;4972125;28;20019;-79
2023/07/01 04:45:57;;;;;;;3.38;3.08;;;;;;;15.60;100.00;100410.94;4976364;28;20084;-80
2023/07/01 04:48:22;;;;;;;3.25;2.95;;;;;;;15.59;100.00;100411.91;4988758;28;20046;-80
2023/07/01 04:50:48;;;;;;;2.97;2.72;;;;;;;15.61;100.00;100410.81;4987552;28;20237;-80
2023/07/01 04:53:13;;;;;;;3.08;2.75;;;;;;;15.62;100.00;100412.47;4968698;28;20369;-81
2023/07/01 04:55:43;;;;;;;3.22;2.80;;;;;;;15.63;100.00;100414.13;4957487;28;20035;-80
2023/07/01 04:58:09;;;;;;;4.18;3.10;;;;;;;15.61;100.00;100413.47;4951668;28;20431;-80
2023/07/01 05:00:37;;;;;;;3.40;2.75;;;;;;;15.57;100.00;100404.09;4952486;28;20435;-80
2023/07/01 05:03:03;;;;;;;4.72;2.83;;;;;;;15.55;100.00;100403.41;4985761;28;20038;-80
2023/07/01 05:05:29;;;;;;;3.95;2.72;;;;;;;15.58;100.00;100400.47;4976587;28;20055;-80
2023/07/01 05:07:54;;;;;;;3.50;2.90;;;;;;;15.58;100.00;100394.34;4971034;28;20030;-80
2023/07/01 05:10:19;;;;;;;4.00;3.15;;;;;;;15.60;100.00;100398.50;4971603;28;20059;-80
2023/07/01 05:12:45;;;;;;;3.22;2.90;;;;;;;15.61;100.00;100405.50;4970426;28;20042;-80
2023/07/01 05:15:10;;;;;;;3.88;2.90;;;;;;;15.63;100.00;100398.22;4970801;28;20026;-79
2023/07/01 05:17:36;;;;;;;5.22;3.00;;;;;;;15.62;100.00;100399.22;4971834;28;20447;-79
2023/07/01 05:20:01;;;;;;;3.33;3.00;;;;;;;15.62;100.00;100399.22;4981717;28;20034;-81
2023/07/01 05:22:26;;;;;;;4.15;2.85;;;;;;;15.61;100.00;100397.53;4978840;28;20821;-78
2023/07/01 05:24:54;;;;;;;3.10;2.80;;;;;;;15.61;100.00;100389.59;4970318;28;20034;-78
2023/07/01 05:27:19;;;;;;;4.75;3.00;;;;;;;15.59;100.00;100396.00;4969931;28;20031;-79
2023/07/01 05:29:45;;;;;;;4.93;3.05;;;;;;;15.60;100.00;100398.50;4971059;28;20031;-79
2023/07/01 05:32:11;;;;;;;4.10;2.92;;;;;;;15.59;100.00;100394.19;4970460;28;20557;-79
2023/07/01 05:34:37;;;;;;;3.42;2.90;;;;;;;15.59;100.00;100391.53;4983106;28;20042;-79
2023/07/01 05:37:03;;;;;;;4.10;2.92;;;;;;;15.56;100.00;100391.00;4971460;28;20085;-80
2023/07/01 05:39:30;;;;;;;3.70;3.05;;;;;;;15.57;100.00;100390.84;4970835;28;20427;-79
2023/07/01 05:41:56;;;;;;;4.75;3.03;;;;;;;15.58;100.00;100389.88;4974909;28;20125;-80
2023/07/01 05:44:24;;;;;;;4.68;3.05;;;;;;;15.57;100.00;100390.84;4979326;28;20110;-79
2023/07/01 05:46:49;;;;;;;3.78;2.92;;;;;;;15.57;100.00;100387.34;4977506;28;20074;-79
2023/07/01 05:49:15;;;;;;;3.67;3.20;;;;;;;15.57;100.00;100385.53;4980705;28;20105;-80
2023/07/01 05:51:40;;;;;;;3.25;2.92;;;;;;;15.59;100.00;100380.94;4961031;28;20042;-80
2023/07/01 05:54:05;;;;;;;5.13;3.40;;;;;;;15.58;100.00;100379.25;4972864;28;20614;-80
2023/07/01 05:56:31;;;;;;;5.93;3.05;;;;;;;15.61;100.00;100383.47;4966610;28;20038;-80
2023/07/01 05:58:56;;;;;;;3.80;3.38;;;;;;;15.63;100.00;100376.16;4971277;28;20097;-80
2023/07/01 06:01:21;;;;;;;4.05;3.45;;;;;;;15.64;100.00;100380.50;4976919;28;20169;-80
2023/07/01 06:03:47;;;;;;;4.45;2.80;;;;;;;15.64;100.00;100376.00;4975353;28;20105;-80
2023/07/01 06:06:12;;;;;;;3.30;3.00;;;;;;;15.68;100.00;100373.88;4985603;28;20547;-80
2023/07/01 06:08:38;;;;;;;7.28;3.35;;;;;;;15.72;100.00;100371.75;4986579;28;20022;-79
2023/07/01 06:11:14;;;;;;;6.40;3.63;;;;;;;15.78;100.00;100373.75;4986530;28;20027;-80
2023/07/01 06:13:45;;;;;;;4.30;2.92;;;;;;;15.79;100.00;100375.41;4980261;28;20042;-80
2023/07/01 06:16:10;;;;;;;2.90;2.55;;;;;;;15.81;100.00;100368.13;4962829;28;20027;-80
2023/07/01 06:18:35;;;;;;;2.80;2.60;;;;;;;15.84;100.00;100367.81;4971016;28;20591;-80
2023/07/01 06:21:03;;;;;;;2.85;2.50;;;;;;;15.84;100.00;100363.34;4970519;28;20465;-80
2023/07/01 06:23:30;;;;;;;3.00;2.60;;;;;;;15.86;100.00;100371.13;4969972;28;20062;-80
2023/07/01 06:25:56;;;;;;;2.85;2.58;;;;;;;15.88;100.00;100364.66;4970445;28;20027;-80
2023/07/01 06:28:23;;;;;;;3.67;2.85;;;;;;;15.91;100.00;100363.53;4970648;28;20070;-79
2023/07/01 06:30:48;;;;;;;3.20;2.30;;;;;;;15.90;100.00;100368.00;4969876;28;20027;-79
2023/07/01 06:33:15;;;;;;;3.10;2.40;;;;;;;15.95;100.00;100360.38;4959821;28;20030;-79
2023/07/01 06:35:43;;;;;;;2.72;2.53;;;;;;;15.99;100.00;100361.72;4951011;28;20047;-79
2023/07/01 06:38:08;;;;;;;3.20;2.65;;;;;;;16.02;100.00;100367.72;4954125;28;20019;-79
2023/07/01 06:40:36;;;;;;;2.63;2.42;;;;;;;16.03;100.00;100362.25;4953960;28;20027;-79
2023/07/01 06:43:02;;;;;;;3.03;2.38;;;;;;;16.03;100.00;100359.59;4957785;28;20424;-80
2023/07/01 06:45:28;;;;;;;2.97;2.47;;;;;;;16.04;100.00;100358.63;4979814;28;20104;-79
2023/07/01 06:47:54;;;;;;;3.45;2.28;;;;;;;16.00;100.00;100357.25;4987697;28;20062;-79
2023/07/01 06:50:19;;;;;;;3.92;2.08;;;;;;;16.00;100.00;100357.25;4977264;28;20023;-79
2023/07/01 06:52:44;;;;;;;3.58;2.28;;;;;;;16.00;100.00;100359.91;4982623;28;20026;-79
2023/07/01 06:55:10;;;;;;;2.50;2.30;;;;;;;16.02;100.00;100360.59;4982793;28;20026;-79
2023/07/01 06:57:36;;;;;;;2.92;2.17;;;;;;;16.03;100.00;100359.59;4970374;28;20031;-79
2023/07/01 07:00:03;;;;;;;2.80;2.25;;;;;;;16.04;100.00;100363.09;4985796;28;20973;-79
2023/07/01 07:02:28;;;;;;;3.70;2.25;;;;;;;16.06;100.00;100361.94;4989076;28;20030;-80
2023/07/01 07:04:53;;;;;;;3.60;2.40;;;;;;;16.08;100.00;100369.75;4897150;28;20030;-80
2023/07/01 07:07:19;;;;;;;2.47;2.28;;;;;;;16.06;100.00;100353.97;4979557;28;20491;-80
2023/07/01 07:09:44;;;;;;;4.60;2.33;;;;;;;16.07;100.00;100360.13;4974451;28;20053;-79
2023/07/01 07:12:11;;;;;;;2.58;2.30;;;;;;;16.04;100.00;100353.31;4979027;28;20399;-80
2023/07/01 07:14:38;;;;;;;2.88;2.50;;;;;;;16.05;100.00;100357.63;4984402;28;20034;-78
2023/07/01 07:17:04;;;;;;;2.58;2.38;;;;;;;16.06;100.00;100356.63;4972951;28;20446;-80
2023/07/01 07:19:31;;;;;;;4.60;2.60;;;;;;;16.08;100.00;100365.25;4972965;28;20071;-80
2023/07/01 07:21:57;;;;;;;2.83;2.60;;;;;;;16.08;100.00;100351.16;4970920;28;20022;-78
2023/07/01 07:24:22;;;;;;;4.10;2.67;;;;;;;16.13;100.00;100351.50;4954430;28;20062;-79
2023/07/01 07:27:00;;;;;;;3.50;2.60;;;;;;;16.17;100.00;100348.38;4968033;28;20113;-79
2023/07/01 07:29:26;;;;;;;5.40;2.88;;;;;;;16.20;100.00;100347.22;4953683;28;20031;-79
2023/07/01 07:31:51;;;;;;;2.80;2.53;;;;;;;16.18;100.00;100344.72;4963988;28;20101;-79
2023/07/01 07:34:16;;;;;;;3.35;2.88;;;;;;;16.22;100.00;100345.22;4971371;28;20078;-78
2023/07/01 07:36:43;;;;;;;3.10;2.80;;;;;;;16.20;100.00;100347.22;4973009;28;20027;-78
2023/07/01 07:39:12;;;;;;;3.50;2.90;;;;;;;16.22;100.00;100340.75;4972856;28;20502;-78
2023/07/01 07:41:39;;;;;;;5.10;2.90;;;;;;;16.26;100.00;100336.75;4960196;28;20038;-79
2023/07/01 07:44:04;;;;;;;2.92;2.65;;;;;;;16.27;100.00;100341.09;4974111;28;20387;-78
2023/07/01 07:46:29;;;;;;;3.22;2.80;;;;;;;16.33;100.00;100341.41;4988695;28;20026;-79
2023/07/01 07:48:55;;;;;;;3.00;2.70;;;;;;;16.35;100.00;100334.13;4975725;28;20034;-78
2023/07/01 07:51:22;;;;;;;3.08;2.80;;;;;;;16.37;100.00;100330.31;4972665;28;20500;-77
2023/07/01 07:53:47;;;;;;;3.28;2.72;;;;;;;16.44;100.00;100328.69;4974937;28;20073;-76
2023/07/01 07:56:13;;;;;;;2.80;2.60;;;;;;;16.47;100.00;100332.84;4977326;28;20426;-75
2023/07/01 07:58:40;;;;;;;4.20;2.40;;;;;;;16.55;100.00;100335.50;4973715;28;20031;-76
2023/07/01 08:01:06;;;;;;;3.85;2.50;;;;;;;16.57;100.00;100330.84;4990662;28;20022;-75
2023/07/01 08:03:31;;;;;;;3.03;2.67;;;;;;;16.64;100.00;100328.34;4980452;28;20026;-75
2023/07/01 08:05:57;;;;;;;2.50;2.30;;;;;;;16.72;100.00;100329.22;4983364;28;20532;-76
2023/07/01 08:08:22;;;;;;;3.60;2.65;;;;;;;16.76;100.00;100322.56;4977732;28;20084;-77
2023/07/01 08:10:48;;;;;;;4.57;2.58;;;;;;;16.79;100.00;100327.56;4981733;28;20030;-75
2023/07/01 08:13:14;;;;;;;2.50;2.30;;;;;;;16.83;100.00;100326.25;4969332;28;20038;-75
2023/07/01 08:15:42;;;;;;;2.70;2.50;;;;;;;16.91;100.00;100325.41;4982979;28;20379;-76
2023/07/01 08:18:08;;;;;;;3.15;2.33;;;;;;;16.89;100.00;100322.91;4972064;28;20037;-78
2023/07/01 08:20:34;;;;;;;2.67;2.47;;;;;;;16.95;100.00;100320.59;4968697;28;20468;-78
2023/07/01 08:22:59;;;;;;;2.65;2.38;;;;;;;17.03;100.00;100320.56;4953189;28;20042;-78
2023/07/01 08:25:25;;;;;;;2.50;2.30;;;;;;;17.08;100.00;100327.03;4963915;28;20033;-78
2023/07/01 08:27:50;;;;;;;2.40;2.20;;;;;;;17.13;100.00;100321.22;4970525;28;20101;-78
2023/07/01 08:30:16;;;;;;;2.08;1.88;;;;;;;17.17;100.00;100325.19;4969725;28;20045;-78
2023/07/01 08:32:42;;;;;;;1.95;1.80;;;;;;;17.15;100.00;100327.19;4972529;28;20357;-78
2023/07/01 08:35:10;;;;;;;3.72;1.75;;;;;;;17.10;100.00;100322.38;4971388;28;20042;-78
2023/07/01 08:37:35;;;;;;;1.83;1.60;;;;;;;17.11;100.00;100323.22;4970163;28;20038;-78
2023/07/01 08:40:00;;;;;;;1.58;1.48;;;;;;;17.14;100.00;100318.38;4972124;28;20548;-79
2023/07/01 08:42:35;;;;;;;4.20;1.67;;;;;;;17.14;100.00;100322.88;4972037;28;20097;-78
2023/07/01 08:45:02;;;;;;;1.77;1.67;;;;;;;17.11;100.00;100321.38;4974149;28;20085;-79
2023/07/01 08:47:32;;;;;;;1.60;1.50;;;;;;;17.18;100.00;100324.19;4987535;28;20236;-78
2023/07/01 08:50:04;;;;;;;2.17;1.40;;;;;;;17.16;100.00;100323.53;4981260;28;20033;-78
2023/07/01 08:52:36;;;;;;;2.45;1.38;;;;;;;17.18;100.00;100326.84;4974636;28;20416;-79
2023/07/01 08:55:04;;;;;;;1.92;1.30;;;;;;;17.17;100.00;100320.72;4979947;28;20116;-79
2023/07/01 08:57:30;;;;;;;1.33;1.23;;;;;;;17.20;100.00;100308.91;4971547;28;20934;-80
2023/07/01 08:59:56;;;;;;;2.63;1.10;;;;;;;17.21;100.00;100316.75;4970862;28;20102;-78
2023/07/01 09:02:23;;;;;;;1.40;1.30;;;;;;;17.23;100.00;100313.91;4983590;28;20078;-79
2023/07/01 09:04:53;;;;;;;1.25;1.15;;;;;;;17.27;100.00;100304.59;4985735;28;20045;-79
2023/07/01 09:07:18;;;;;;;5.95;1.20;;;;;;;17.34;100.00;100308.22;4984648;28;20088;-79
2023/07/01 09:09:45;;;;;;;1.20;1.10;;;;;;;17.37;100.00;100305.22;4983294;28;20022;-79
2023/07/01 09:12:10;;;;;;;1.92;1.10;;;;;;;17.36;100.00;100308.88;4975514;28;20034;-78
2023/07/01 09:15:00;;;;;;;1.20;1.00;;;;;;;17.40;100.00;100315.50;4982626;28;20395;-79
2023/07/01 09:17:39;;;;;;;1.10;1.00;;;;;;;17.44;100.00;100316.00;4984366;28;20027;-78
2023/07/01 09:20:10;;;;;;;1.10;1.00;;;;;;;17.40;100.00;100310.19;4976819;28;20018;-79
2023/07/01 09:22:39;;;;;;;0.90;0.90;;;;;;;17.42;100.00;100313.50;4978792;28;20027;-78
2023/07/01 09:25:04;;;;;;;0.98;0.95;;;;;;;17.44;100.00;100306.19;4988733;28;20062;-79
2023/07/01 09:27:42;;;;;;;1.10;1.00;;;;;;;17.54;100.00;100313.97;4989490;28;20069;-78
2023/07/01 09:30:19;;;;;;;1.10;1.00;;;;;;;17.57;100.00;100308.31;4981337;28;20030;-79
2023/07/01 09:32:45;;;;;;;1.30;1.20;;;;;;;17.67;100.00;100303.66;4976747;28;20124;-78
2023/07/01 09:35:10;;;;;;;2.15;1.00;;;;;;;17.69;100.00;100300.81;4976166;28;20043;-79
2023/07/01 09:37:35;;;;;;;1.08;1.08;;;;;;;17.76;100.00;100296.47;4972157;28;20069;-79
2023/07/01 09:40:18;;;;;;;1.20;1.10;;;;;;;17.78;100.00;100305.94;4971788;28;20033;-79
2023/07/01 09:42:52;;;;;;;;;;;;;;;17.85;100.00;100303.41;4976077;28;20115;-78
2023/07/01 09:45:18;;;;;;;1.13;1.10;;;;;;;17.91;100.00;100296.56;4989618;28;19960;-78
2023/07/01 09:47:43;;;;;;;1.90;1.23;;;;;;;17.93;100.00;100290.06;4989100;28;20022;-79
2023/07/01 09:50:20;;;;;;;1.27;1.17;;;;;;;17.93;100.00;100287.38;4986728;28;20145;-78
2023/07/01 09:52:46;;;;;;;1.30;1.17;;;;;;;17.93;100.00;100302.53;4990019;28;20046;-78
2023/07/01 09:55:11;;;;;;;1.50;1.40;;;;;;;17.88;100.00;100291.59;4986750;28;20471;-78
2023/07/01 09:57:38;;;;;;;1.50;1.40;;;;;;;17.83;100.00;100300.09;4990049;28;20034;-78
2023/07/01 10:00:05;;;;;;;2.22;1.60;;;;;;;17.84;100.00;100301.75;4989161;28;20482;-78
2023/07/01 10:02:30;;;;;;;1.60;1.50;;;;;;;17.83;100.00;100297.44;4981805;28;20034;-79
2023/07/01 10:04:56;;;;;;;2.20;1.50;;;;;;;17.83;100.00;100297.44;4987891;28;20038;-79
2023/07/01 10:07:21;;;;;;;1.45;1.35;;;;;;;17.87;100.00;100301.41;4972462;28;20050;-78
2023/07/01 10:09:47;;;;;;;1.70;1.45;;;;;;;17.93;100.00;100290.06;4980749;28;20026;-78
2023/07/01 10:12:17;;;;;;;1.58;1.48;;;;;;;17.93;100.00;100295.38;4989440;28;20040;-78
2023/07/01 10:14:47;;;;;;;2.03;1.75;;;;;;;17.96;100.00;100295.03;4980781;28;20096;-79
2023/07/01 10:17:17;;;;;;;2.45;1.60;;;;;;;17.97;100.00;100290.53;4987608;28;20395;-78
2023/07/01 10:19:46;;;;;;;1.60;1.50;;;;;;;18.00;100.00;100291.00;4989179;28;20124;-78
2023/07/01 10:22:22;;;;;;;13.73;2.13;;;;;;;18.01;100.00;100290.03;4993222;28;20054;-77
2023/07/01 10:24:55;;;;;;;1.70;1.60;;;;;;;18.06;100.00;100287.66;4982929;28;20117;-78
2023/07/01 10:27:39;;;;;;;1.80;1.70;;;;;;;18.09;100.00;100279.31;4982770;28;20157;-78
2023/07/01 10:30:05;;;;;;;3.15;1.77;;;;;;;18.06;100.00;100279.69;4992125;28;20058;-78
2023/07/01 10:32:32;;;;;;;2.45;2.00;;;;;;;18.06;100.00;100282.34;4987218;28;20037;-78
2023/07/01 10:35:00;;;;;;;2.20;2.10;;;;;;;18.06;100.00;100279.69;4991655;28;20283;-78
2023/07/01 10:37:26;;;;;;;2.85;2.60;;;;;;;18.14;100.00;100276.97;4980824;28;20058;-78
2023/07/01 10:39:54;;;;;;;2.70;2.50;;;;;;;18.19;100.00;100273.75;4985194;28;20106;-78
2023/07/01 10:42:32;;;;;;;3.08;2.60;;;;;;;18.29;100.00;100278.84;4978040;28;20030;-78
2023/07/01 10:45:10;;;;;;;2.95;2.60;;;;;;;18.46;100.00;100275.91;4975970;28;20180;-78
2023/07/01 10:47:35;;;;;;;3.22;2.90;;;;;;;18.57;100.00;100271.16;5000377;28;20667;-80
2023/07/01 10:50:05;;;;;;;3.00;2.80;;;;;;;18.65;100.00;100269.28;4988126;28;20028;-80
2023/07/01 10:52:31;;;;;;;3.20;2.92;;;;;;;18.81;100.00;100268.28;4982155;28;20034;-79
2023/07/01 10:54:59;;;;;;;2.97;2.78;;;;;;;18.81;100.00;100272.78;4984427;28;20031;-79
2023/07/01 10:57:24;;;;;;;3.75;3.05;;;;;;;18.92;100.00;100278.53;4985289;28;20035;-79
2023/07/01 10:59:50;;;;;;;4.13;3.00;;;;;;;18.99;100.00;100275.97;4980522;28;20482;-79
2023/07/01 11:02:35;;;;;;;3.63;3.20;;;;;;;19.13;100.00;100280.47;4989452;28;20022;-79
2023/07/01 11:05:03;;;;;;;3.13;2.92;;;;;;;19.28;100.00;100273.34;4972500;28;20960;-79
2023/07/01 11:07:29;;;;;;;2.90;2.70;;;;;;;19.40;100.00;100274.53;5001423;28;20045;-79
2023/07/01 11:09:55;;;;;;;3.67;3.10;;;;;;;19.59;100.00;100267.81;4972392;28;20073;-79
2023/07/01 11:12:22;;;;;;;2.95;2.75;;;;;;;19.76;100.00;100273.78;4984006;28;20490;-79
2023/07/01 11:14:51;;;;;;;3.22;3.00;;;;;;;19.82;100.00;100286.38;4975963;28;20030;-78
2023/07/01 11:17:19;;;;;;;3.50;3.20;;;;;;;19.93;100.00;100259.19;4966502;28;20077;-78
2023/07/01 11:19:45;;;;;;;3.80;3.50;;;;;;;19.97;100.00;100263.13;4975037;28;20464;-78